createdAt,value
2022-08-12T00:03:03.620Z,97020.13
2022-08-12T00:06:20.494Z,97026.41
2022-08-12T00:09:35.839Z,97024.91
2022-08-12T00:12:51.283Z,97021.06
2022-08-12T00:16:08.108Z,97032.41
2022-08-12T00:19:24.262Z,97032.53
2022-08-12T00:22:40.995Z,97038.06
2022-08-12T00:26:20.834Z,97031.63
2022-08-12T00:29:38.602Z,97028.84
2022-08-12T00:32:57.131Z,97025.25
2022-08-12T00:36:14.890Z,97024.06
2022-08-12T00:39:48.208Z,97027.44
2022-08-12T00:42:48.446Z,97028.13
2022-08-12T00:46:03.886Z,97030.72
2022-08-12T00:49:02.022Z,97034.38
2022-08-12T00:52:09.888Z,97037.09
2022-08-12T00:55:07.131Z,97044.13
2022-08-12T00:58:05.891Z,97041.75
2022-08-12T01:01:08.204Z,97037.84
2022-08-12T01:04:27.083Z,97034.91
2022-08-12T01:07:47.082Z,97029.22
2022-08-12T01:11:05.058Z,97037.47
2022-08-12T01:14:03.266Z,97042.25
2022-08-12T01:17:00.313Z,97037.94
2022-08-12T01:20:06.240Z,97039.50
2022-08-12T01:24:29.721Z,97032.72
2022-08-12T01:27:27.241Z,97044.50
2022-08-12T01:30:26.701Z,97041.59
2022-08-12T01:33:26.441Z,97033.84
2022-08-12T01:36:28.612Z,97035.41
2022-08-12T01:39:33.316Z,97032.59
2022-08-12T01:42:47.747Z,97040.34
2022-08-12T01:46:11.977Z,97036.25
2022-08-12T01:50:07.959Z,97028.94
2022-08-12T01:53:15.876Z,97032.09
2022-08-12T01:56:14.529Z,97029.88
2022-08-12T01:59:39.909Z,97021.13
2022-08-12T02:02:48.214Z,97031.00
2022-08-12T02:06:28.352Z,97024.16
2022-08-12T02:10:50.314Z,97031.16
2022-08-12T02:14:02.071Z,97024.34
2022-08-12T02:17:08.346Z,97023.06
2022-08-12T02:20:35.222Z,97022.56
2022-08-12T02:23:49.324Z,97009.44
2022-08-12T02:26:49.086Z,97018.47
2022-08-12T02:29:47.577Z,97020.19
2022-08-12T02:32:46.996Z,97019.56
2022-08-12T02:35:44.866Z,97016.56
2022-08-12T02:38:43.595Z,97011.78
2022-08-12T02:41:45.923Z,97013.53
2022-08-12T02:44:45.602Z,97017.50
2022-08-12T02:47:58.044Z,97008.78
2022-08-12T02:51:04.670Z,97014.28
2022-08-12T02:54:06.142Z,97000.66
2022-08-12T02:57:06.174Z,97007.28
2022-08-12T03:00:06.202Z,96996.41
2022-08-12T03:03:08.122Z,97002.16
2022-08-12T03:06:16.726Z,97000.19
2022-08-12T03:09:16.672Z,96996.69
2022-08-12T03:12:15.584Z,97004.88
2022-08-12T03:15:22.798Z,97002.50
2022-08-12T03:18:31.327Z,96995.69
2022-08-12T03:21:53.029Z,97001.84
2022-08-12T03:24:45.609Z,97005.78
2022-08-12T03:27:49.820Z,97002.97
2022-08-12T03:30:56.550Z,96997.50
2022-08-12T03:34:01.402Z,96996.06
2022-08-12T03:37:02.756Z,96995.41
2022-08-12T03:39:59.748Z,97000.97
2022-08-12T03:43:15.928Z,97004.72
2022-08-12T03:46:44.831Z,97001.13
2022-08-12T03:50:00.825Z,97008.94
2022-08-12T03:53:16.207Z,97008.16
2022-08-12T03:56:32.119Z,97009.84
2022-08-12T03:59:47.381Z,97006.63
2022-08-12T04:02:45.100Z,97002.03
2022-08-12T04:05:55.703Z,97008.97
2022-08-12T04:08:57.571Z,97012.53
2022-08-12T04:12:13.106Z,97012.97
2022-08-12T04:15:14.678Z,97017.41
2022-08-12T04:18:15.978Z,97016.50
2022-08-12T04:21:12.877Z,97011.69
2022-08-12T04:24:10.809Z,97020.88
2022-08-12T04:27:11.178Z,97014.97
2022-08-12T04:30:31.011Z,97028.63
2022-08-12T04:33:26.930Z,97017.06
2022-08-12T04:36:23.760Z,97019.34
2022-08-12T04:39:24.143Z,97019.75
2022-08-12T04:42:21.976Z,97023.94
2022-08-12T04:45:22.568Z,97015.94
2022-08-12T04:48:20.152Z,97020.97
2022-08-12T04:51:20.265Z,97023.69
2022-08-12T04:54:17.490Z,97017.44
2022-08-12T04:57:20.088Z,97018.72
2022-08-12T05:00:17.040Z,97011.53
2022-08-12T05:03:14.214Z,97016.44
2022-08-12T05:06:11.066Z,97010.88
2022-08-12T05:09:18.845Z,97012.66
2022-08-12T05:12:19.779Z,97023.03
2022-08-12T05:15:27.592Z,97018.94
2022-08-12T05:18:26.083Z,97024.19
2022-08-12T05:21:26.491Z,97022.16
2022-08-12T05:24:23.360Z,97016.06
2022-08-12T05:27:22.618Z,97019.22
2022-08-12T05:30:19.514Z,97022.88
2022-08-12T05:33:16.387Z,97018.59
2022-08-12T05:36:15.607Z,97020.50
2022-08-12T05:39:12.645Z,97009.09
2022-08-12T05:42:10.141Z,97015.94
2022-08-12T05:45:08.087Z,97014.50
2022-08-12T05:48:06.412Z,97031.28
2022-08-12T05:51:03.541Z,97025.94
2022-08-12T05:54:03.731Z,97021.31
2022-08-12T05:57:00.758Z,97020.84
2022-08-12T05:59:57.606Z,97021.19
2022-08-12T06:03:06.035Z,97021.31
2022-08-12T06:06:04.704Z,97026.38
2022-08-12T06:09:01.579Z,97020.69
2022-08-12T06:12:06.121Z,97029.09
2022-08-12T06:15:05.041Z,97016.41
2022-08-12T06:18:13.792Z,97020.53
2022-08-12T06:21:16.447Z,97008.63
2022-08-12T06:24:14.154Z,97012.25
2022-08-12T06:27:11.558Z,97007.16
2022-08-12T06:30:14.219Z,97005.97
2022-08-12T06:33:25.139Z,97002.47
2022-08-12T06:36:33.796Z,96993.63
2022-08-12T06:39:30.821Z,96991.72
2022-08-12T06:42:46.633Z,96988.59
2022-08-12T06:45:47.259Z,96981.16
2022-08-12T06:48:44.133Z,96981.09
2022-08-12T06:51:41.131Z,96977.66
2022-08-12T06:54:50.570Z,96971.94
2022-08-12T06:58:06.072Z,96971.00
2022-08-12T07:01:07.361Z,96960.81
2022-08-12T07:04:33.411Z,96963.97
2022-08-12T07:07:21.507Z,96954.38
2022-08-12T07:10:18.645Z,96957.88
2022-08-12T07:13:15.494Z,96955.81
2022-08-12T07:16:15.804Z,96950.03
2022-08-12T07:19:12.691Z,96941.56
2022-08-12T07:22:13.525Z,96943.84
2022-08-12T07:25:28.878Z,96937.44
2022-08-12T07:28:29.399Z,96940.41
2022-08-12T07:31:27.960Z,96939.63
2022-08-12T07:34:24.865Z,96939.50
2022-08-12T07:37:21.851Z,96943.78
2022-08-12T07:40:19.817Z,96943.84
2022-08-12T07:43:16.761Z,96945.22
2022-08-12T07:46:19.788Z,96937.84
2022-08-12T07:49:17.049Z,96947.53
2022-08-12T07:52:14.394Z,96942.72
2022-08-12T07:55:13.154Z,96952.97
2022-08-12T07:58:10.011Z,96942.88
2022-08-12T08:01:11.858Z,96935.50
2022-08-12T08:04:27.418Z,96928.00
2022-08-12T08:07:30.426Z,96931.72
2022-08-12T08:10:30.482Z,96934.00
2022-08-12T08:13:27.343Z,96928.94
2022-08-12T08:16:24.665Z,96931.41
2022-08-12T08:19:25.473Z,96928.25
2022-08-12T08:22:33.516Z,96932.75
2022-08-12T08:25:39.765Z,96934.56
2022-08-12T08:28:36.647Z,96935.63
2022-08-12T08:31:33.542Z,96936.78
2022-08-12T08:34:54.139Z,96933.94
2022-08-12T08:37:48.393Z,96915.34
2022-08-12T08:41:05.124Z,96934.03
2022-08-12T08:44:03.081Z,96929.75
2022-08-12T08:47:01.240Z,96931.63
2022-08-12T08:50:01.213Z,96933.88
2022-08-12T08:52:59.189Z,96930.91
2022-08-12T08:56:11.221Z,96929.66
2022-08-12T08:59:12.706Z,96940.06
2022-08-12T09:02:09.808Z,96924.22
2022-08-12T09:05:14.923Z,96935.34
2022-08-12T09:12:07.095Z,96910.75
2022-08-12T09:15:07.197Z,96913.91
2022-08-12T09:18:18.662Z,96902.25
2022-08-12T09:21:30.486Z,96904.16
2022-08-12T09:24:47.520Z,96918.34
2022-08-12T09:28:04.365Z,96907.09
2022-08-12T09:31:05.533Z,96908.50
2022-08-12T09:34:25.723Z,96926.63
2022-08-12T09:37:57.854Z,96911.44
2022-08-12T09:41:01.709Z,96914.22
2022-08-12T09:44:39.454Z,96915.41
2022-08-12T09:47:37.538Z,96901.00
2022-08-12T09:50:37.012Z,96914.25
2022-08-12T09:53:38.821Z,96904.88
2022-08-12T09:56:59.027Z,96898.75
2022-08-12T10:00:16.222Z,96902.28
2022-08-12T10:03:31.912Z,96892.84
2022-08-12T10:06:36.101Z,96881.19
2022-08-12T10:09:57.283Z,96901.13
2022-08-12T10:13:12.133Z,96873.72
2022-08-12T10:16:21.803Z,96889.75
2022-08-12T10:19:21.131Z,96872.13
2022-08-12T10:22:49.287Z,96878.81
2022-08-12T10:26:34.057Z,96867.88
2022-08-12T10:30:11.933Z,96866.63
2022-08-12T10:33:18.022Z,96869.44
2022-08-12T10:36:16.288Z,96863.53
2022-08-12T10:40:01.739Z,96863.41
2022-08-12T10:43:11.965Z,96855.28
2022-08-12T10:46:21.001Z,96839.41
2022-08-12T10:50:03.079Z,96840.28
2022-08-12T10:52:48.427Z,96837.84
2022-08-12T10:55:56.044Z,96834.56
2022-08-12T10:58:55.751Z,96821.88
2022-08-12T11:04:19.819Z,96822.75
2022-08-12T11:07:03.358Z,96820.59
2022-08-12T11:08:38.967Z,96826.56
2022-08-12T11:12:34.606Z,96818.59
2022-08-12T11:14:56.733Z,96824.91
2022-08-12T11:17:56.289Z,96810.06
2022-08-12T11:20:54.392Z,96812.25
2022-08-12T11:23:54.976Z,96802.97
2022-08-12T11:26:53.974Z,96794.78
2022-08-12T11:30:01.508Z,96793.50
2022-08-12T11:33:03.522Z,96793.91
2022-08-12T11:36:14.680Z,96781.56
2022-08-12T11:39:12.574Z,96786.94
2022-08-12T11:42:09.577Z,96801.22
2022-08-12T11:45:10.403Z,96791.94
2022-08-12T11:48:07.634Z,96794.50
2022-08-12T11:51:05.579Z,96761.78
2022-08-12T11:54:03.195Z,96768.28
2022-08-12T11:57:02.372Z,96776.97
2022-08-12T12:03:17.310Z,96785.03
2022-08-12T12:06:16.954Z,96766.66
2022-08-12T12:09:14.257Z,96767.22
2022-08-12T12:12:13.993Z,96771.13
2022-08-12T12:15:12.416Z,96764.22
2022-08-12T12:18:39.780Z,96763.69
2022-08-12T12:21:48.221Z,96756.69
2022-08-12T12:24:47.545Z,96753.06
2022-08-12T12:28:05.252Z,96741.75
2022-08-12T12:31:04.037Z,96744.75
2022-08-12T12:34:01.213Z,96749.03
2022-08-12T12:36:58.575Z,96741.66
2022-08-12T12:39:58.524Z,96736.16
2022-08-12T12:43:00.570Z,96739.78
2022-08-12T12:46:02.068Z,96736.44
2022-08-12T12:48:58.901Z,96750.00
2022-08-12T12:52:19.138Z,96735.81
2022-08-12T12:55:14.276Z,96746.09
2022-08-12T12:58:14.413Z,96742.97
2022-08-12T13:01:27.944Z,96736.94
2022-08-12T13:04:34.979Z,96738.88
2022-08-12T13:07:49.557Z,96732.81
2022-08-12T13:10:51.178Z,96736.47
2022-08-12T13:14:10.229Z,96731.94
2022-08-12T13:17:14.686Z,96735.44
2022-08-12T13:20:13.949Z,96736.34
2022-08-12T13:23:36.703Z,96733.41
2022-08-12T13:26:35.069Z,96726.69
2022-08-12T13:29:34.445Z,96714.28
2022-08-12T13:32:31.838Z,96720.00
2022-08-12T13:36:03.316Z,96722.47
2022-08-12T13:38:54.350Z,96723.00
2022-08-12T13:41:51.604Z,96718.47
2022-08-12T13:44:53.639Z,96715.69
2022-08-12T13:47:55.787Z,96713.75
2022-08-12T13:50:52.986Z,96716.91
2022-08-12T13:53:57.834Z,96713.06
2022-08-12T13:56:56.999Z,96724.06
2022-08-12T13:59:55.681Z,96729.72
2022-08-12T14:02:57.662Z,96727.03
2022-08-12T14:05:59.192Z,96724.66
2022-08-12T14:08:56.179Z,96726.38
2022-08-12T14:11:59.464Z,96714.25
2022-08-12T14:14:57.362Z,96717.44
2022-08-12T14:17:54.525Z,96710.34
2022-08-12T14:21:04.258Z,96707.22
2022-08-12T14:24:08.045Z,96704.09
2022-08-12T14:27:09.211Z,96695.69
2022-08-12T14:30:15.496Z,96690.47
2022-08-12T14:33:15.310Z,96691.22
2022-08-12T14:36:22.012Z,96698.56
2022-08-12T14:39:19.876Z,96697.28
2022-08-12T14:42:17.675Z,96700.44
2022-08-12T14:45:15.675Z,96702.03
2022-08-12T14:48:14.833Z,96702.81
2022-08-12T14:52:57.720Z,96695.81
2022-08-12T14:57:58.481Z,96692.94
2022-08-12T15:01:14.050Z,96687.38
2022-08-12T15:04:13.988Z,96691.50
2022-08-12T15:07:33.145Z,96680.22
2022-08-12T15:10:32.264Z,96678.84
2022-08-12T15:13:34.658Z,96677.91
2022-08-12T15:16:36.762Z,96665.28
2022-08-12T15:20:30.938Z,96678.63
2022-08-12T15:22:53.777Z,96680.91
2022-08-12T15:25:59.681Z,96683.25
2022-08-12T15:28:56.865Z,96687.78
2022-08-12T15:31:59.594Z,96698.47
2022-08-12T15:35:00.272Z,96678.41
2022-08-12T15:38:10.581Z,96685.06
2022-08-12T15:41:13.054Z,96686.66
2022-08-12T15:44:19.996Z,96689.63
2022-08-12T15:47:48.063Z,96691.09
2022-08-12T15:50:53.065Z,96690.28
2022-08-12T15:54:33.826Z,96682.97
2022-08-12T15:57:24.650Z,96681.84
2022-08-12T16:00:48.795Z,96684.94
2022-08-12T16:04:00.807Z,96686.38
2022-08-12T16:07:06.154Z,96684.00
2022-08-12T16:10:08.439Z,96684.38
2022-08-12T16:13:16.214Z,96688.78
2022-08-12T16:16:23.654Z,96695.53
2022-08-12T16:20:03.894Z,96692.53
2022-08-12T16:22:38.670Z,96689.19
2022-08-12T16:26:02.751Z,96704.38
2022-08-12T16:28:56.054Z,96695.94
2022-08-12T16:31:54.282Z,96689.31
2022-08-12T16:34:54.985Z,96685.00
2022-08-12T16:38:25.178Z,96691.28
2022-08-12T16:41:13.424Z,96674.94
2022-08-12T16:44:10.687Z,96677.63
2022-08-12T16:47:07.546Z,96682.69
2022-08-12T16:50:09.069Z,96689.34
2022-08-12T16:53:17.305Z,96682.59
2022-08-12T16:56:17.259Z,96693.38
2022-08-12T16:59:16.262Z,96690.19
2022-08-12T17:02:31.616Z,96680.03
2022-08-12T17:05:31.646Z,96682.69
2022-08-12T17:08:29.176Z,96681.38
2022-08-12T17:11:26.741Z,96683.75
2022-08-12T17:14:25.133Z,96672.00
2022-08-12T17:17:39.191Z,96679.28
2022-08-12T17:20:43.889Z,96681.16
2022-08-12T17:23:53.529Z,96682.75
2022-08-12T17:26:53.920Z,96680.72
2022-08-12T17:30:04.184Z,96682.28
2022-08-12T17:33:06.738Z,96684.78
2022-08-12T17:36:05.633Z,96678.09
2022-08-12T17:39:04.326Z,96687.13
2022-08-12T17:42:11.129Z,96683.22
2022-08-12T17:45:24.750Z,96686.19
2022-08-12T17:48:22.430Z,96691.91
2022-08-12T17:51:34.473Z,96693.50
2022-08-12T17:54:50.581Z,96701.06
2022-08-12T17:57:48.308Z,96707.25
2022-08-12T18:00:51.271Z,96705.72
2022-08-12T18:04:05.856Z,96710.91
2022-08-12T18:07:08.573Z,96711.66
2022-08-12T18:10:06.788Z,96721.06
2022-08-12T18:13:06.616Z,96715.94
2022-08-12T18:16:06.776Z,96712.81
2022-08-12T18:19:03.844Z,96723.38
2022-08-12T18:22:03.024Z,96723.75
2022-08-12T18:25:05.658Z,96733.00
2022-08-12T18:28:16.428Z,96735.63
2022-08-12T18:31:19.538Z,96740.59
2022-08-12T18:34:20.437Z,96738.16
2022-08-12T18:37:29.460Z,96739.81
2022-08-12T18:40:59.377Z,96745.94
2022-08-12T18:44:07.870Z,96756.19
2022-08-12T18:47:09.600Z,96758.63
2022-08-12T18:50:12.613Z,96749.88
2022-08-12T18:54:04.911Z,96759.03
2022-08-12T18:56:33.299Z,96758.72
2022-08-12T19:00:00.275Z,96760.59
2022-08-12T19:02:54.401Z,96761.16
2022-08-12T19:05:56.363Z,96759.50
2022-08-12T19:08:54.758Z,96760.69
2022-08-12T19:12:10.443Z,96768.09
2022-08-12T19:15:17.106Z,96764.38
2022-08-12T19:18:14.629Z,96774.75
2022-08-12T19:21:16.588Z,96772.38
2022-08-12T19:24:35.323Z,96774.09
2022-08-12T19:27:34.209Z,96769.88
2022-08-12T19:30:52.826Z,96773.94
2022-08-12T19:34:21.528Z,96780.84
2022-08-12T19:37:08.846Z,96781.97
2022-08-12T19:40:20.540Z,96791.03
2022-08-12T19:43:25.864Z,96781.81
2022-08-12T19:46:43.433Z,96775.59
2022-08-12T19:49:55.171Z,96786.34
2022-08-12T19:52:54.975Z,96781.69
2022-08-12T19:55:54.857Z,96783.94
2022-08-12T19:58:52.186Z,96780.66
2022-08-12T20:02:02.675Z,96779.50
2022-08-12T20:06:06.240Z,96785.47
2022-08-12T20:08:34.283Z,96794.34
2022-08-12T20:12:11.336Z,96785.56
2022-08-12T20:14:52.400Z,96792.63
2022-08-12T20:17:51.067Z,96799.31
2022-08-12T20:20:48.344Z,96804.22
2022-08-12T20:24:00.298Z,96806.47
2022-08-12T20:26:58.192Z,96798.44
2022-08-12T20:29:55.439Z,96809.50
2022-08-12T20:32:59.375Z,96805.16
2022-08-12T20:36:14.097Z,96801.47
2022-08-12T20:39:34.289Z,96797.84
2022-08-12T20:42:33.265Z,96799.97
2022-08-12T20:45:32.940Z,96800.19
2022-08-12T20:48:54.737Z,96797.59
2022-08-12T20:51:56.278Z,96804.03
2022-08-12T20:54:53.594Z,96808.94
2022-08-12T20:58:02.420Z,96811.38
2022-08-12T21:01:01.386Z,96822.84
2022-08-12T21:04:18.306Z,96810.84
2022-08-12T21:07:16.114Z,96811.22
2022-08-12T21:10:13.069Z,96816.38
2022-08-12T21:13:20.012Z,96816.94
2022-08-12T21:16:17.121Z,96815.66
2022-08-12T21:19:52.858Z,96821.22
2022-08-12T21:22:51.234Z,96826.44
2022-08-12T21:25:48.257Z,96819.94
2022-08-12T21:28:58.738Z,96815.75
2022-08-12T21:32:36.310Z,96815.31
2022-08-12T21:35:23.266Z,96814.72
2022-08-12T21:38:20.216Z,96812.72
2022-08-12T21:41:31.118Z,96824.66
2022-08-12T21:45:47.055Z,96825.13
2022-08-12T21:47:53.139Z,96827.41
2022-08-12T21:50:51.217Z,96831.25
2022-08-12T21:54:07.123Z,96827.63
2022-08-12T21:57:05.062Z,96820.03
2022-08-12T22:00:16.984Z,96831.16
2022-08-12T22:04:02.754Z,96830.16
2022-08-12T22:06:53.397Z,96828.78
2022-08-12T22:09:56.966Z,96823.50
2022-08-12T22:12:58.457Z,96827.69
2022-08-12T22:15:58.091Z,96824.22
2022-08-12T22:18:54.922Z,96822.41
2022-08-12T22:21:58.839Z,96824.78
2022-08-12T22:25:01.070Z,96824.09
2022-08-12T22:28:16.306Z,96822.88
2022-08-12T22:31:15.052Z,96826.63
2022-08-12T22:34:18.371Z,96821.94
2022-08-12T22:37:19.658Z,96821.94
2022-08-12T22:40:17.198Z,96817.63
2022-08-12T22:43:34.357Z,96818.91
2022-08-12T22:46:53.060Z,96813.38
2022-08-12T22:49:59.347Z,96816.72
2022-08-12T22:53:15.566Z,96824.44
2022-08-12T22:56:14.328Z,96806.75
2022-08-12T22:59:11.343Z,96814.59
2022-08-12T23:02:09.170Z,96813.59
2022-08-12T23:05:10.568Z,96813.13
2022-08-12T23:08:07.491Z,96816.88
2022-08-12T23:11:10.775Z,96810.44
2022-08-12T23:14:07.608Z,96810.41
2022-08-12T23:17:07.410Z,96812.22
2022-08-12T23:20:18.233Z,96804.31
2022-08-12T23:23:24.013Z,96810.16
2022-08-12T23:26:40.818Z,96807.00
2022-08-12T23:29:43.948Z,96805.91
2022-08-12T23:33:00.064Z,96812.88
2022-08-12T23:36:02.810Z,96806.41
2022-08-12T23:39:01.815Z,96806.28
2022-08-12T23:42:17.741Z,96809.31
2022-08-12T23:45:20.266Z,96808.47
2022-08-12T23:48:31.744Z,96805.88
2022-08-12T23:51:32.100Z,96806.31
2022-08-12T23:54:39.220Z,96812.06
2022-08-12T23:58:18.403Z,96812.78
